createdAt,value
2022-12-23T00:00:21.255Z,43.17
2022-12-23T00:02:48.996Z,35.10
2022-12-23T00:05:16.845Z,38.13
2022-12-23T00:07:45.275Z,34.40
2022-12-23T00:10:14.208Z,35.47
2022-12-23T00:12:59.392Z,35.38
2022-12-23T00:15:26.931Z,34.95
2022-12-23T00:17:54.575Z,35.65
2022-12-23T00:20:22.227Z,39.55
2022-12-23T00:23:07.815Z,39.20
2022-12-23T00:25:42.330Z,38.25
2022-12-23T00:28:12.208Z,39.65
2022-12-23T00:30:45.792Z,36.17
2022-12-23T00:33:13.515Z,35.78
2022-12-23T00:35:41.085Z,38.70
2022-12-23T00:38:08.643Z,37.05
2022-12-23T00:40:55.283Z,32.95
2022-12-23T00:43:22.879Z,38.15
2022-12-23T00:45:50.570Z,37.00
2022-12-23T00:48:35.921Z,40.50
2022-12-23T00:51:03.468Z,42.08
2022-12-23T00:53:31.127Z,42.70
2022-12-23T00:56:00.049Z,39.30
2022-12-23T00:58:27.665Z,41.38
2022-12-23T01:01:12.967Z,42.90
2022-12-23T01:03:58.073Z,40.72
2022-12-23T01:06:25.575Z,41.30
2022-12-23T01:08:53.072Z,38.70
2022-12-23T01:11:21.964Z,40.83
2022-12-23T01:13:49.502Z,41.23
2022-12-23T01:16:17.999Z,43.53
2022-12-23T01:18:45.880Z,39.83
2022-12-23T01:21:13.598Z,42.70
2022-12-23T01:23:41.390Z,42.63
2022-12-23T01:26:09.315Z,45.07
2022-12-23T01:28:38.232Z,42.90
2022-12-23T01:31:07.213Z,39.42
2022-12-23T01:33:34.993Z,40.08
2022-12-23T01:36:03.619Z,35.92
2022-12-23T01:38:31.346Z,40.13
2022-12-23T01:40:59.244Z,42.78
2022-12-23T01:43:46.160Z,41.42
2022-12-23T01:46:13.877Z,37.78
2022-12-23T01:48:43.087Z,41.55
2022-12-23T01:51:14.803Z,37.37
2022-12-23T01:53:47.041Z,35.00
2022-12-23T01:56:17.983Z,41.05
2022-12-23T01:58:51.407Z,34.95
2022-12-23T02:01:37.399Z,36.72
2022-12-23T02:04:07.326Z,37.17
2022-12-23T02:06:55.345Z,39.08
2022-12-23T02:09:25.748Z,43.13
2022-12-23T02:12:21.309Z,44.53
2022-12-23T02:15:24.312Z,36.25
2022-12-23T02:18:04.693Z,36.43
2022-12-23T02:20:59.522Z,39.97
2022-12-23T02:23:59.318Z,37.25
2022-12-23T02:26:54.476Z,37.78
2022-12-23T02:29:52.195Z,38.65
2022-12-23T02:32:25.780Z,39.47
2022-12-23T02:34:56.591Z,42.13
2022-12-23T02:37:33.275Z,39.38
2022-12-23T02:40:07.976Z,42.85
2022-12-23T02:42:39.697Z,39.15
2022-12-23T02:45:12.778Z,41.77
2022-12-23T02:47:45.759Z,39.75
2022-12-23T02:50:19.336Z,40.20
2022-12-23T02:52:50.739Z,39.55
2022-12-23T02:55:23.148Z,43.50
2022-12-23T02:57:54.924Z,40.63
2022-12-23T03:00:23.547Z,45.03
2022-12-23T03:02:52.619Z,37.63
2022-12-23T03:05:28.595Z,41.20
2022-12-23T03:08:02.476Z,39.03
2022-12-23T03:10:40.289Z,40.07
2022-12-23T03:13:19.266Z,44.75
2022-12-23T03:15:53.769Z,39.30
2022-12-23T03:18:34.353Z,43.67
2022-12-23T03:21:09.063Z,39.67
2022-12-23T03:23:41.730Z,37.30
2022-12-23T03:26:15.092Z,38.88
2022-12-23T03:28:48.263Z,37.05
2022-12-23T03:31:21.315Z,47.03
2022-12-23T03:33:55.436Z,41.67
2022-12-23T03:36:26.864Z,41.77
2022-12-23T03:38:56.801Z,41.63
2022-12-23T03:41:34.756Z,45.47
2022-12-23T03:44:07.716Z,46.70
2022-12-23T03:46:39.226Z,48.40
2022-12-23T03:49:12.956Z,43.73
2022-12-23T03:51:47.401Z,51.13
2022-12-23T03:54:19.961Z,47.88
2022-12-23T03:56:52.123Z,43.90
2022-12-23T03:59:24.849Z,45.90
2022-12-23T04:02:05.655Z,45.90
2022-12-23T04:04:50.671Z,42.22
2022-12-23T04:07:22.938Z,42.30
2022-12-23T04:09:52.909Z,42.35
2022-12-23T04:12:23.601Z,46.10
2022-12-23T04:14:51.945Z,44.70
2022-12-23T04:17:20.340Z,44.97
2022-12-23T04:19:50.751Z,47.17
2022-12-23T04:22:18.320Z,46.33
2022-12-23T04:24:45.826Z,46.58
2022-12-23T04:27:14.866Z,45.50
2022-12-23T04:29:43.151Z,48.45
2022-12-23T04:32:11.284Z,43.20
2022-12-23T04:34:38.856Z,43.83
2022-12-23T04:37:07.713Z,51.20
2022-12-23T04:39:35.251Z,48.83
2022-12-23T04:42:02.755Z,50.00
2022-12-23T04:44:30.292Z,52.05
2022-12-23T04:46:58.032Z,48.45
2022-12-23T04:49:25.640Z,54.97
2022-12-23T04:51:53.173Z,48.90
2022-12-23T04:54:22.083Z,46.92
2022-12-23T04:56:49.620Z,54.70
2022-12-23T04:59:17.433Z,55.97
2022-12-23T05:01:45.097Z,56.67
2022-12-23T05:04:14.122Z,56.03
2022-12-23T05:06:41.697Z,57.95
2022-12-23T05:09:09.517Z,63.20
2022-12-23T05:11:42.046Z,61.92
2022-12-23T05:14:10.687Z,64.10
2022-12-23T05:16:38.812Z,53.63
2022-12-23T05:19:06.467Z,58.70
2022-12-23T05:21:34.253Z,62.22
2022-12-23T05:24:01.758Z,62.03
2022-12-23T05:26:29.336Z,62.63
2022-12-23T05:28:58.153Z,62.00
2022-12-23T05:31:25.767Z,58.47
2022-12-23T05:33:53.351Z,63.22
2022-12-23T05:36:20.994Z,62.45
2022-12-23T05:38:48.869Z,65.45
2022-12-23T05:41:17.400Z,67.30
2022-12-23T05:43:44.903Z,71.95
2022-12-23T05:46:13.861Z,72.03
2022-12-23T05:48:41.459Z,58.33
2022-12-23T05:51:09.008Z,70.95
2022-12-23T05:53:36.605Z,71.60
2022-12-23T05:56:05.861Z,74.05
2022-12-23T05:58:33.505Z,71.88
2022-12-23T06:01:02.447Z,74.43
2022-12-23T06:03:31.619Z,88.22
2022-12-23T06:05:59.316Z,66.87
2022-12-23T06:08:26.877Z,64.53
2022-12-23T06:10:54.404Z,72.40
2022-12-23T06:13:21.935Z,69.70
2022-12-23T06:15:49.588Z,70.10
2022-12-23T06:18:17.084Z,70.23
2022-12-23T06:20:48.128Z,72.13
2022-12-23T06:23:15.677Z,77.60
2022-12-23T06:25:43.231Z,71.07
2022-12-23T06:28:10.782Z,92.25
2022-12-23T06:30:38.310Z,65.23
2022-12-23T06:33:05.877Z,85.97
2022-12-23T06:35:33.489Z,108.07
2022-12-23T06:38:02.392Z,110.18
2022-12-23T06:40:29.960Z,80.55
2022-12-23T06:42:57.512Z,98.60
2022-12-23T06:45:25.070Z,76.80
2022-12-23T06:47:52.638Z,112.68
2022-12-23T06:50:20.555Z,88.82
2022-12-23T06:52:48.944Z,88.50
2022-12-23T06:55:18.098Z,66.80
2022-12-23T06:57:45.886Z,64.97
2022-12-23T07:00:14.926Z,76.35
2022-12-23T07:02:42.579Z,64.45
2022-12-23T07:05:10.627Z,97.93
2022-12-23T07:07:38.107Z,80.03
2022-12-23T07:10:06.791Z,85.05
2022-12-23T07:12:35.731Z,86.32
2022-12-23T07:15:03.448Z,73.82
2022-12-23T07:17:31.309Z,85.38
2022-12-23T07:19:59.377Z,116.20
2022-12-23T07:22:26.894Z,78.07
2022-12-23T07:24:54.453Z,79.90
2022-12-23T07:27:22.075Z,78.85
2022-12-23T07:29:50.943Z,77.22
2022-12-23T07:32:18.540Z,81.87
2022-12-23T07:34:46.041Z,65.93
2022-12-23T07:37:13.567Z,67.97
2022-12-23T07:39:41.080Z,73.38
2022-12-23T07:42:42.901Z,61.75
2022-12-23T07:44:57.534Z,73.90
2022-12-23T07:47:25.190Z,75.50
2022-12-23T07:49:52.739Z,75.72
2022-12-23T07:52:20.544Z,76.72
2022-12-23T07:54:48.075Z,82.68
2022-12-23T07:57:15.655Z,58.80
2022-12-23T07:59:43.146Z,106.15
2022-12-23T08:02:12.399Z,72.07
2022-12-23T08:04:45.781Z,75.63
2022-12-23T08:07:13.927Z,105.32
2022-12-23T08:09:41.505Z,67.73
2022-12-23T08:12:09.067Z,140.48
2022-12-23T08:14:36.769Z,62.85
2022-12-23T08:17:04.358Z,61.92
2022-12-23T08:19:33.382Z,74.32
2022-12-23T08:22:00.917Z,102.93
2022-12-23T08:24:28.446Z,61.35
2022-12-23T08:26:55.991Z,66.57
2022-12-23T08:29:23.505Z,127.60
2022-12-23T08:31:51.641Z,90.03
2022-12-23T08:34:19.297Z,73.50
2022-12-23T08:36:48.191Z,74.55
2022-12-23T08:39:15.912Z,56.30
2022-12-23T08:41:45.789Z,61.92
2022-12-23T08:44:13.992Z,109.90
2022-12-23T08:46:42.338Z,92.23
2022-12-23T08:49:10.549Z,58.63
2022-12-23T08:51:38.767Z,60.65
2022-12-23T08:54:07.687Z,50.60
2022-12-23T08:56:37.392Z,59.58
2022-12-23T08:59:05.611Z,85.60
2022-12-23T09:01:35.589Z,83.70
2022-12-23T09:04:04.467Z,56.85
2022-12-23T09:06:35.808Z,64.25
2022-12-23T09:09:03.650Z,51.53
2022-12-23T09:11:32.597Z,55.63
2022-12-23T09:14:01.406Z,52.13
2022-12-23T09:16:30.064Z,57.35
2022-12-23T09:18:57.882Z,65.90
2022-12-23T09:21:25.997Z,75.53
2022-12-23T09:23:53.849Z,54.47
2022-12-23T09:26:23.620Z,76.85
2022-12-23T09:28:53.156Z,61.50
2022-12-23T09:31:21.510Z,62.58
2022-12-23T09:33:50.809Z,53.25
2022-12-23T09:36:18.784Z,55.93
2022-12-23T09:38:46.677Z,52.78
2022-12-23T09:41:27.075Z,43.13
2022-12-23T09:44:14.168Z,48.20
2022-12-23T09:46:48.796Z,49.13
2022-12-23T09:49:18.614Z,51.97
2022-12-23T09:51:47.413Z,51.78
2022-12-23T09:54:18.803Z,53.67
2022-12-23T09:56:52.318Z,50.63
2022-12-23T09:59:37.070Z,61.42
2022-12-23T10:02:19.692Z,58.40
2022-12-23T10:04:57.910Z,55.17
2022-12-23T10:07:32.944Z,61.40
2022-12-23T10:10:07.432Z,65.70
2022-12-23T10:12:40.428Z,54.33
2022-12-23T10:15:31.891Z,58.43
2022-12-23T10:18:05.032Z,65.95
2022-12-23T10:20:40.306Z,51.40
2022-12-23T10:23:15.726Z,56.97
2022-12-23T10:25:50.432Z,67.80
2022-12-23T10:28:18.740Z,53.87
2022-12-23T10:31:23.828Z,52.65
2022-12-23T10:33:55.613Z,63.25
2022-12-23T10:36:34.286Z,58.80
2022-12-23T10:39:09.287Z,56.30
2022-12-23T10:41:45.626Z,46.90
2022-12-23T10:44:37.002Z,52.33
2022-12-23T10:47:17.567Z,60.63
2022-12-23T10:50:02.362Z,61.28
2022-12-23T10:52:33.323Z,78.80
2022-12-23T10:55:00.919Z,64.83
2022-12-23T10:57:30.251Z,53.80
2022-12-23T10:59:58.353Z,58.50
2022-12-23T11:02:48.216Z,57.63
2022-12-23T11:05:18.702Z,49.35
2022-12-23T11:07:47.682Z,44.13
2022-12-23T11:10:19.354Z,48.03
2022-12-23T11:12:49.441Z,49.65
2022-12-23T11:15:29.890Z,54.97
2022-12-23T11:18:06.572Z,44.95
2022-12-23T11:20:35.316Z,42.63
2022-12-23T11:23:04.720Z,47.30
2022-12-23T11:25:35.743Z,46.40
2022-12-23T11:28:08.741Z,43.38
2022-12-23T11:30:39.711Z,45.20
2022-12-23T11:33:21.910Z,46.33
2022-12-23T11:36:01.915Z,40.70
2022-12-23T11:38:29.750Z,37.65
2022-12-23T11:40:57.897Z,47.78
2022-12-23T11:43:27.500Z,41.58
2022-12-23T11:46:18.033Z,40.40
2022-12-23T11:48:52.865Z,39.38
2022-12-23T11:51:27.602Z,45.60
2022-12-23T11:54:00.758Z,48.08
2022-12-23T11:56:30.060Z,43.58
2022-12-23T11:59:06.659Z,41.17
2022-12-23T12:01:34.406Z,44.30
2022-12-23T12:04:08.812Z,49.55
2022-12-23T12:06:42.645Z,43.83
2022-12-23T12:09:13.843Z,43.65
2022-12-23T12:11:47.762Z,51.00
2022-12-23T12:14:22.856Z,43.70
2022-12-23T12:16:59.434Z,48.35
2022-12-23T12:19:32.258Z,46.83
2022-12-23T12:22:05.242Z,41.03
2022-12-23T12:24:37.793Z,54.30
2022-12-23T12:27:07.918Z,51.10
2022-12-23T12:29:40.761Z,41.95
2022-12-23T12:32:16.582Z,49.60
2022-12-23T12:34:52.826Z,44.67
2022-12-23T12:37:29.099Z,42.30
2022-12-23T12:40:01.141Z,45.72
2022-12-23T12:42:34.229Z,90.45
2022-12-23T12:45:14.372Z,45.20
2022-12-23T12:47:59.917Z,41.20
2022-12-23T12:50:35.448Z,37.07
2022-12-23T12:53:12.966Z,40.45
2022-12-23T12:55:43.330Z,36.92
2022-12-23T12:58:16.448Z,32.95
2022-12-23T13:00:55.042Z,38.72
2022-12-23T13:03:34.344Z,37.20
2022-12-23T13:06:13.936Z,34.72
2022-12-23T13:08:55.095Z,37.03
2022-12-23T13:11:31.124Z,42.30
2022-12-23T13:14:07.151Z,38.70
2022-12-23T13:16:45.733Z,44.07
2022-12-23T13:19:27.171Z,43.38
2022-12-23T13:22:02.557Z,35.05
2022-12-23T13:24:37.622Z,36.15
2022-12-23T13:27:12.104Z,54.47
2022-12-23T13:30:01.954Z,37.60
2022-12-23T13:32:47.181Z,40.83
2022-12-23T13:35:32.098Z,35.30
2022-12-23T13:38:12.860Z,38.65
2022-12-23T13:40:48.546Z,35.60
2022-12-23T13:43:19.858Z,45.93
2022-12-23T13:45:48.615Z,33.60
2022-12-23T13:48:31.774Z,40.47
2022-12-23T13:51:05.129Z,34.05
2022-12-23T13:53:49.118Z,37.70
2022-12-23T13:56:26.887Z,32.30
2022-12-23T13:58:55.164Z,32.40
2022-12-23T14:01:34.728Z,33.55
2022-12-23T14:04:35.099Z,31.27
2022-12-23T14:07:06.012Z,32.78
2022-12-23T14:09:38.206Z,27.20
2022-12-23T14:12:13.394Z,29.67
2022-12-23T14:14:48.355Z,25.92
2022-12-23T14:17:25.052Z,27.45
2022-12-23T14:20:04.053Z,29.58
2022-12-23T14:22:51.920Z,31.00
2022-12-23T14:25:46.529Z,26.67
2022-12-23T14:28:29.449Z,29.13
2022-12-23T14:30:57.162Z,28.90
2022-12-23T14:33:27.071Z,27.95
2022-12-23T14:36:13.846Z,24.10
2022-12-23T14:38:41.627Z,29.38
2022-12-23T14:41:26.321Z,27.85
2022-12-23T14:43:59.509Z,30.05
2022-12-23T14:46:55.344Z,26.98
2022-12-23T14:49:40.129Z,30.37
2022-12-23T14:52:50.837Z,25.92
2022-12-23T14:55:43.984Z,30.65
2022-12-23T14:58:29.980Z,24.63
2022-12-23T15:01:03.805Z,27.02
2022-12-23T15:03:35.641Z,26.47
2022-12-23T15:06:08.058Z,25.77
2022-12-23T15:08:39.683Z,27.52
2022-12-23T15:11:10.262Z,28.20
2022-12-23T15:13:39.446Z,28.83
2022-12-23T15:16:07.835Z,31.23
2022-12-23T15:18:35.493Z,36.78
2022-12-23T15:21:10.649Z,32.58
2022-12-23T15:23:38.234Z,37.00
2022-12-23T15:26:06.063Z,33.67
2022-12-23T15:28:38.477Z,37.83
2022-12-23T15:31:17.026Z,36.13
2022-12-23T15:34:05.364Z,34.33
2022-12-23T15:36:36.397Z,33.10
2022-12-23T15:39:09.709Z,36.17
2022-12-23T15:41:43.496Z,40.00
2022-12-23T15:44:15.193Z,35.30
2022-12-23T15:46:44.413Z,37.60
2022-12-23T15:49:12.926Z,38.03
2022-12-23T15:54:36.611Z,36.43
2022-12-23T15:57:05.749Z,31.98
2022-12-23T15:59:37.828Z,35.25
2022-12-23T16:02:49.685Z,33.10
2022-12-23T16:05:06.111Z,35.75
2022-12-23T16:07:36.075Z,33.77
2022-12-23T16:10:12.594Z,36.30
2022-12-23T16:12:41.398Z,35.83
2022-12-23T16:15:21.734Z,36.03
2022-12-23T16:17:50.619Z,34.90
2022-12-23T16:20:22.927Z,35.23
2022-12-23T16:22:54.358Z,34.58
2022-12-23T16:25:25.343Z,33.95
2022-12-23T16:27:57.337Z,35.28
2022-12-23T16:30:30.582Z,41.58
2022-12-23T16:33:02.222Z,32.80
2022-12-23T16:35:34.165Z,40.75
2022-12-23T16:38:12.818Z,40.42
2022-12-23T16:40:40.525Z,36.90
2022-12-23T16:43:08.284Z,40.80
2022-12-23T16:45:37.407Z,34.07
2022-12-23T16:48:12.234Z,38.55
2022-12-23T16:50:39.795Z,35.53
2022-12-23T16:53:07.373Z,37.05
2022-12-23T16:55:34.911Z,38.42
2022-12-23T16:58:02.445Z,43.57
2022-12-23T17:00:29.977Z,43.28
2022-12-23T17:02:58.000Z,48.63
2022-12-23T17:05:27.015Z,51.78
2022-12-23T17:07:54.696Z,44.00
2022-12-23T17:10:22.296Z,45.17
2022-12-23T17:12:50.973Z,44.83
2022-12-23T17:15:20.752Z,43.13
2022-12-23T17:17:50.037Z,49.85
2022-12-23T17:20:18.536Z,49.80
2022-12-23T17:22:51.813Z,47.40
2022-12-23T17:25:26.274Z,50.08
2022-12-23T17:27:55.617Z,57.47
2022-12-23T17:30:25.606Z,49.03
2022-12-23T17:32:56.284Z,46.65
2022-12-23T17:35:24.476Z,48.83
2022-12-23T17:37:54.044Z,49.63
2022-12-23T17:40:21.627Z,45.05
2022-12-23T17:42:49.463Z,46.85
2022-12-23T17:45:25.160Z,48.25
2022-12-23T17:47:52.709Z,48.83
2022-12-23T17:50:21.645Z,47.42
2022-12-23T17:52:49.563Z,57.20
2022-12-23T17:55:21.309Z,47.92
2022-12-23T17:57:49.131Z,46.72
2022-12-23T18:00:26.567Z,49.77
2022-12-23T18:02:59.206Z,46.10
2022-12-23T18:05:28.488Z,47.05
2022-12-23T18:07:58.159Z,46.30
2022-12-23T18:10:29.997Z,45.25
2022-12-23T18:13:00.311Z,46.53
2022-12-23T18:15:33.557Z,46.58
2022-12-23T18:18:01.173Z,48.22
2022-12-23T18:20:29.053Z,43.63
2022-12-23T18:22:59.133Z,47.40
2022-12-23T18:25:28.247Z,44.27
2022-12-23T18:27:55.802Z,48.60
2022-12-23T18:30:23.503Z,51.60
2022-12-23T18:32:51.059Z,46.28
2022-12-23T18:35:27.877Z,49.67
2022-12-23T18:37:55.605Z,47.33
2022-12-23T18:40:26.768Z,47.30
2022-12-23T18:42:59.817Z,50.75
2022-12-23T18:45:35.147Z,48.95
2022-12-23T18:48:03.884Z,44.70
2022-12-23T18:50:32.394Z,42.53
2022-12-23T18:53:00.202Z,49.22
2022-12-23T18:55:30.156Z,44.83
2022-12-23T18:57:58.957Z,49.40
2022-12-23T19:00:30.367Z,50.33
2022-12-23T19:02:58.248Z,45.33
2022-12-23T19:05:29.140Z,46.00
2022-12-23T19:07:58.825Z,45.17
2022-12-23T19:10:28.688Z,44.08
2022-12-23T19:12:56.435Z,46.78
2022-12-23T19:15:24.615Z,42.37
2022-12-23T19:17:53.700Z,49.92
2022-12-23T19:20:22.039Z,43.30
2022-12-23T19:22:50.014Z,48.28
2022-12-23T19:25:19.829Z,51.78
2022-12-23T19:27:48.061Z,48.17
2022-12-23T19:30:17.139Z,47.75
2022-12-23T19:32:45.013Z,43.67
2022-12-23T19:35:15.007Z,51.70
2022-12-23T19:37:43.001Z,49.40
2022-12-23T19:40:11.676Z,49.70
2022-12-23T19:42:39.423Z,45.85
2022-12-23T19:45:08.850Z,44.90
2022-12-23T19:47:36.881Z,46.78
2022-12-23T19:50:06.561Z,51.08
2022-12-23T19:52:35.791Z,42.63
2022-12-23T19:55:03.626Z,43.28
2022-12-23T19:57:31.432Z,44.47
2022-12-23T19:59:59.007Z,43.85
2022-12-23T20:02:26.533Z,43.50
2022-12-23T20:04:54.058Z,45.53
2022-12-23T20:07:21.625Z,46.33
2022-12-23T20:09:50.480Z,42.97
2022-12-23T20:12:17.999Z,45.25
2022-12-23T20:14:45.540Z,43.20
2022-12-23T20:17:13.051Z,41.80
2022-12-23T20:19:45.851Z,39.22
2022-12-23T20:22:14.066Z,38.88
2022-12-23T20:24:41.674Z,37.50
2022-12-23T20:27:12.501Z,40.53
2022-12-23T20:29:41.527Z,36.30
2022-12-23T20:32:09.129Z,37.63
2022-12-23T20:34:39.576Z,34.10
2022-12-23T20:37:08.214Z,36.10
2022-12-23T20:39:36.155Z,33.45
2022-12-23T20:42:04.969Z,34.43
2022-12-23T20:44:36.194Z,36.53
2022-12-23T20:47:06.329Z,30.67
2022-12-23T20:49:34.317Z,32.28
2022-12-23T20:52:02.205Z,32.60
2022-12-23T20:54:33.709Z,37.03
2022-12-23T20:57:01.756Z,30.35
2022-12-23T20:59:29.470Z,30.00
2022-12-23T21:01:59.337Z,30.05
2022-12-23T21:04:27.384Z,27.75
2022-12-23T21:06:54.905Z,28.00
2022-12-23T21:09:22.401Z,22.08
2022-12-23T21:11:49.951Z,26.70
2022-12-23T21:14:17.864Z,22.50
2022-12-23T21:16:45.755Z,17.33
2022-12-23T21:19:18.294Z,19.47
2022-12-23T21:21:46.566Z,15.95
2022-12-23T21:24:14.804Z,18.60
2022-12-23T21:26:42.710Z,19.38
2022-12-23T21:29:11.737Z,16.77
2022-12-23T21:31:41.901Z,14.43
2022-12-23T21:34:09.728Z,20.20
2022-12-23T21:36:39.662Z,16.35
2022-12-23T21:39:08.145Z,15.02
2022-12-23T21:41:38.535Z,16.33
2022-12-23T21:44:06.661Z,15.90
2022-12-23T21:46:34.928Z,16.10
2022-12-23T21:49:03.064Z,15.85
2022-12-23T21:51:38.902Z,13.63
2022-12-23T21:54:10.307Z,12.38
2022-12-23T21:56:38.244Z,12.67
2022-12-23T21:59:08.370Z,11.25
2022-12-23T22:01:36.249Z,12.48
2022-12-23T22:04:04.185Z,14.32
2022-12-23T22:06:33.728Z,14.27
2022-12-23T22:09:01.249Z,14.27
2022-12-23T22:11:32.241Z,14.88
2022-12-23T22:14:02.995Z,11.93
2022-12-23T22:16:32.255Z,17.85
2022-12-23T22:19:01.630Z,12.73
2022-12-23T22:21:31.729Z,13.50
2022-12-23T22:24:00.087Z,17.88
2022-12-23T22:26:30.880Z,11.10
2022-12-23T22:29:00.635Z,13.68
2022-12-23T22:31:32.741Z,12.70
2022-12-23T22:34:00.316Z,14.40
2022-12-23T22:36:27.933Z,14.15
2022-12-23T22:38:57.581Z,14.05
2022-12-23T22:41:27.802Z,13.32
2022-12-23T22:43:57.111Z,15.43
2022-12-23T22:46:25.357Z,13.07
2022-12-23T22:48:53.584Z,12.85
2022-12-23T22:51:22.933Z,16.98
2022-12-23T22:53:50.553Z,16.70
2022-12-23T22:56:19.505Z,16.55
2022-12-23T22:58:47.098Z,12.57
2022-12-23T23:01:22.260Z,15.80
2022-12-23T23:03:51.000Z,16.90
2022-12-23T23:06:18.815Z,20.30
2022-12-23T23:08:46.388Z,16.70
2022-12-23T23:11:13.958Z,16.97
2022-12-23T23:13:41.514Z,16.50
2022-12-23T23:16:09.269Z,15.68
2022-12-23T23:18:39.304Z,16.10
2022-12-23T23:21:06.932Z,15.68
2022-12-23T23:23:34.716Z,15.53
2022-12-23T23:26:02.285Z,13.48
2022-12-23T23:28:29.840Z,16.58
2022-12-23T23:31:23.745Z,16.38
2022-12-23T23:33:46.964Z,15.25
2022-12-23T23:36:15.586Z,13.63
2022-12-23T23:38:43.164Z,15.20
2022-12-23T23:41:10.807Z,14.82
2022-12-23T23:43:38.376Z,12.20
2022-12-23T23:46:05.950Z,18.10
2022-12-23T23:48:33.512Z,13.97
2022-12-23T23:51:06.555Z,18.02
2022-12-23T23:53:34.427Z,15.95
2022-12-23T23:56:03.781Z,15.77
2022-12-23T23:58:31.435Z,14.98
